createdAt,value
2018-10-19T00:01:15.634Z,12.40
2018-10-19T00:03:44.204Z,12.34
2018-10-19T00:06:12.845Z,12.39
2018-10-19T00:08:41.504Z,12.43
2018-10-19T00:11:10.134Z,12.52
2018-10-19T00:13:38.732Z,12.52
2018-10-19T00:16:07.437Z,12.50
2018-10-19T00:18:36.062Z,12.53
2018-10-19T00:21:04.694Z,12.51
2018-10-19T00:23:33.301Z,12.55
2018-10-19T00:26:01.852Z,12.56
2018-10-19T00:28:30.457Z,12.55
2018-10-19T00:30:59.099Z,12.42
2018-10-19T00:33:27.705Z,12.46
2018-10-19T00:35:56.235Z,12.46
2018-10-19T00:38:24.856Z,12.51
2018-10-19T00:40:53.425Z,12.46
2018-10-19T00:43:21.961Z,12.50
2018-10-19T00:45:50.553Z,12.51
2018-10-19T00:48:20.332Z,12.45
2018-10-19T00:50:48.944Z,12.36
2018-10-19T00:53:17.601Z,12.31
2018-10-19T00:55:46.339Z,12.29
2018-10-19T00:58:14.881Z,12.14
2018-10-19T01:00:43.806Z,12.18
2018-10-19T01:03:12.406Z,12.10
2018-10-19T01:05:41.508Z,12.03
2018-10-19T01:08:10.689Z,11.96
2018-10-19T01:10:39.260Z,11.84
2018-10-19T01:13:07.972Z,11.85
2018-10-19T01:15:36.492Z,11.61
2018-10-19T01:18:05.360Z,11.63
2018-10-19T01:20:34.017Z,11.37
2018-10-19T01:23:02.633Z,11.27
2018-10-19T01:25:31.244Z,11.13
2018-10-19T01:27:59.796Z,11.21
2018-10-19T01:30:28.494Z,11.34
2018-10-19T01:32:57.291Z,11.25
2018-10-19T01:35:26.013Z,11.24
2018-10-19T01:37:54.545Z,11.17
2018-10-19T01:40:23.207Z,11.14
2018-10-19T01:42:51.761Z,10.98
2018-10-19T01:45:20.376Z,11.03
2018-10-19T01:47:48.971Z,11.10
2018-10-19T01:50:17.531Z,11.10
2018-10-19T01:52:46.136Z,11.23
2018-10-19T01:55:14.992Z,11.22
2018-10-19T01:57:43.669Z,11.20
2018-10-19T02:00:12.301Z,11.13
2018-10-19T02:02:40.840Z,11.19
2018-10-19T02:05:09.502Z,10.90
2018-10-19T02:07:38.024Z,11.13
2018-10-19T02:10:07.468Z,11.09
2018-10-19T02:12:36.013Z,11.10
2018-10-19T02:15:04.745Z,11.08
2018-10-19T02:17:33.328Z,11.03
2018-10-19T02:20:01.882Z,10.97
2018-10-19T02:22:30.508Z,10.75
2018-10-19T02:24:59.148Z,10.64
2018-10-19T02:27:27.716Z,10.48
2018-10-19T02:29:56.227Z,10.29
2018-10-19T02:32:24.837Z,10.29
2018-10-19T02:34:53.390Z,10.26
2018-10-19T02:37:21.988Z,10.16
2018-10-19T02:39:50.557Z,10.03
2018-10-19T02:42:19.208Z,10.01
2018-10-19T02:44:47.773Z,10.11
2018-10-19T02:47:16.542Z,9.85
2018-10-19T02:49:45.137Z,9.69
2018-10-19T02:52:13.656Z,9.65
2018-10-19T02:54:42.304Z,9.61
2018-10-19T02:57:10.839Z,9.47
2018-10-19T02:59:39.357Z,9.52
2018-10-19T03:02:08.123Z,9.41
2018-10-19T03:04:36.770Z,9.53
2018-10-19T03:07:06.024Z,9.35
2018-10-19T03:09:34.593Z,9.31
2018-10-19T03:12:03.200Z,9.27
2018-10-19T03:14:31.749Z,9.26
2018-10-19T03:17:00.535Z,9.11
2018-10-19T03:19:29.040Z,9.21
2018-10-19T03:21:57.629Z,9.29
2018-10-19T03:24:26.185Z,9.32
2018-10-19T03:26:54.749Z,9.60
2018-10-19T03:29:23.328Z,9.61
2018-10-19T03:31:51.894Z,9.76
2018-10-19T03:34:20.553Z,9.81
2018-10-19T03:36:49.129Z,9.79
2018-10-19T03:39:18.387Z,10.00
2018-10-19T03:41:46.928Z,10.03
2018-10-19T03:44:15.565Z,10.09
2018-10-19T03:46:44.188Z,10.17
2018-10-19T03:49:12.823Z,10.34
2018-10-19T03:51:41.446Z,10.43
2018-10-19T03:54:10.081Z,10.38
2018-10-19T03:56:38.616Z,10.35
2018-10-19T03:59:07.246Z,10.53
2018-10-19T04:01:35.968Z,10.51
2018-10-19T04:04:04.938Z,10.54
2018-10-19T04:06:33.558Z,10.52
2018-10-19T04:09:02.523Z,10.67
2018-10-19T04:11:31.129Z,10.61
2018-10-19T04:13:59.708Z,10.71
2018-10-19T04:16:28.352Z,10.56
2018-10-19T04:18:57.000Z,10.67
2018-10-19T04:21:25.581Z,10.74
2018-10-19T04:23:54.254Z,10.87
2018-10-19T04:26:22.913Z,10.81
2018-10-19T04:28:51.529Z,10.94
2018-10-19T04:31:20.200Z,10.78
2018-10-19T04:33:48.808Z,10.89
2018-10-19T04:36:17.313Z,10.83
2018-10-19T04:38:45.912Z,10.98
2018-10-19T04:41:14.672Z,10.93
2018-10-19T04:43:43.148Z,10.92
2018-10-19T04:46:11.968Z,10.98
2018-10-19T04:48:40.550Z,11.03
2018-10-19T04:51:09.187Z,11.14
2018-10-19T04:53:37.834Z,11.27
2018-10-19T04:56:06.705Z,11.33
2018-10-19T04:58:35.525Z,11.37
2018-10-19T05:01:04.241Z,11.25
2018-10-19T05:03:32.761Z,11.20
2018-10-19T05:06:01.468Z,11.23
2018-10-19T05:08:29.982Z,11.24
2018-10-19T05:10:58.612Z,11.28
2018-10-19T05:13:27.161Z,11.30
2018-10-19T05:15:55.773Z,11.27
2018-10-19T05:18:24.337Z,11.26
2018-10-19T05:20:52.940Z,11.22
2018-10-19T05:23:21.513Z,11.25
2018-10-19T05:25:50.193Z,11.39
2018-10-19T05:28:18.741Z,11.65
2018-10-19T05:30:47.356Z,11.61
2018-10-19T05:33:16.021Z,11.53
2018-10-19T05:35:44.578Z,11.49
2018-10-19T05:38:13.158Z,11.47
2018-10-19T05:40:41.676Z,11.87
2018-10-19T05:43:10.332Z,12.16
2018-10-19T05:45:39.046Z,11.84
2018-10-19T05:48:07.612Z,11.69
2018-10-19T05:50:39.130Z,11.62
2018-10-19T05:53:10.211Z,11.68
2018-10-19T05:55:38.730Z,11.56
2018-10-19T05:58:07.317Z,11.69
2018-10-19T06:00:36.061Z,11.55
2018-10-19T06:03:04.896Z,11.67
2018-10-19T06:05:33.512Z,11.60
2018-10-19T06:08:02.110Z,11.46
2018-10-19T06:10:30.884Z,11.41
2018-10-19T06:12:59.525Z,11.47
2018-10-19T06:15:34.491Z,11.64
2018-10-19T06:18:03.136Z,11.71
2018-10-19T06:20:34.273Z,11.60
2018-10-19T06:23:04.789Z,11.63
2018-10-19T06:25:40.323Z,11.60
2018-10-19T06:28:08.920Z,11.58
2018-10-19T06:30:37.556Z,11.61
2018-10-19T06:33:06.152Z,11.57
2018-10-19T06:35:34.697Z,11.58
2018-10-19T06:38:03.328Z,11.65
2018-10-19T06:40:31.950Z,11.68
2018-10-19T06:43:00.604Z,11.86
2018-10-19T06:45:29.348Z,11.85
2018-10-19T06:47:58.056Z,11.84
2018-10-19T06:50:26.589Z,11.79
2018-10-19T06:52:55.149Z,11.84
2018-10-19T06:55:23.766Z,11.89
2018-10-19T06:57:52.344Z,11.98
2018-10-19T07:00:20.941Z,11.94
2018-10-19T07:02:49.786Z,11.94
2018-10-19T07:05:18.329Z,12.01
2018-10-19T07:07:46.951Z,12.10
2018-10-19T07:10:15.592Z,12.35
2018-10-19T07:12:44.247Z,12.42
2018-10-19T07:15:13.338Z,12.32
2018-10-19T07:17:41.980Z,12.40
2018-10-19T07:20:11.537Z,12.39
2018-10-19T07:22:40.500Z,12.52
2018-10-19T07:25:09.564Z,12.57
2018-10-19T07:27:38.281Z,12.57
2018-10-19T07:30:07.378Z,12.55
2018-10-19T07:32:36.009Z,12.66
2018-10-19T07:35:04.949Z,12.65
2018-10-19T07:37:33.673Z,12.68
2018-10-19T07:40:02.373Z,12.61
2018-10-19T07:42:31.079Z,12.80
2018-10-19T07:44:59.769Z,12.96
2018-10-19T07:47:28.463Z,13.10
2018-10-19T07:49:57.379Z,13.11
2018-10-19T07:52:26.021Z,13.18
2018-10-19T07:54:54.553Z,13.27
2018-10-19T07:57:23.280Z,13.71
2018-10-19T07:59:51.916Z,13.93
2018-10-19T08:02:20.504Z,13.97
2018-10-19T08:04:49.124Z,14.00
2018-10-19T08:07:17.845Z,14.16
2018-10-19T08:09:46.426Z,14.14
2018-10-19T08:12:15.100Z,14.29
2018-10-19T08:14:43.802Z,14.72
2018-10-19T08:17:12.464Z,14.58
2018-10-19T08:19:40.972Z,14.58
2018-10-19T08:22:09.889Z,14.61
2018-10-19T08:24:38.488Z,14.52
2018-10-19T08:27:07.075Z,14.72
2018-10-19T08:29:35.944Z,14.91
2018-10-19T08:32:04.683Z,14.86
2018-10-19T08:34:33.213Z,15.06
2018-10-19T08:37:01.900Z,14.79
2018-10-19T08:39:30.509Z,14.97
2018-10-19T08:41:59.165Z,15.19
2018-10-19T08:44:27.769Z,15.38
2018-10-19T08:46:56.384Z,15.25
2018-10-19T08:49:24.948Z,15.38
2018-10-19T08:51:53.606Z,15.40
2018-10-19T08:54:22.425Z,15.45
2018-10-19T08:56:50.957Z,15.58
2018-10-19T08:59:19.656Z,15.50
2018-10-19T09:01:48.393Z,15.71
2018-10-19T09:04:17.050Z,15.69
2018-10-19T09:06:45.888Z,15.83
2018-10-19T09:09:14.669Z,15.79
2018-10-19T09:11:43.348Z,15.58
2018-10-19T09:14:22.948Z,15.76
2018-10-19T09:16:51.492Z,15.99
2018-10-19T09:19:20.100Z,16.11
2018-10-19T09:21:48.845Z,16.12
2018-10-19T09:24:17.517Z,16.11
2018-10-19T09:26:46.094Z,16.23
2018-10-19T09:29:15.711Z,16.14
2018-10-19T09:31:44.321Z,16.45
2018-10-19T09:34:13.126Z,16.45
2018-10-19T09:36:42.003Z,16.27
2018-10-19T09:39:14.490Z,16.33
2018-10-19T09:41:43.824Z,16.53
2018-10-19T09:44:12.433Z,16.63
2018-10-19T09:46:41.861Z,16.68
2018-10-19T09:49:13.001Z,16.48
2018-10-19T09:51:42.221Z,16.71
2018-10-19T09:54:11.914Z,16.59
2018-10-19T09:56:40.786Z,16.67
2018-10-19T09:59:09.468Z,16.60
2018-10-19T10:01:39.053Z,16.82
2018-10-19T10:04:07.885Z,16.62
2018-10-19T10:06:36.546Z,16.40
2018-10-19T10:09:08.691Z,16.64
2018-10-19T10:11:37.231Z,16.66
2018-10-19T10:14:06.581Z,16.82
2018-10-19T10:16:35.573Z,16.82
2018-10-19T10:19:04.379Z,16.83
2018-10-19T10:21:33.060Z,16.76
2018-10-19T10:24:01.778Z,16.90
2018-10-19T10:26:30.323Z,16.85
2018-10-19T10:28:58.964Z,17.03
2018-10-19T10:31:27.861Z,16.90
2018-10-19T10:33:56.452Z,17.38
2018-10-19T10:36:25.097Z,17.23
2018-10-19T10:38:53.939Z,17.07
2018-10-19T10:41:22.524Z,17.64
2018-10-19T10:43:51.277Z,17.29
2018-10-19T10:46:20.067Z,17.26
2018-10-19T10:48:48.624Z,17.55
2018-10-19T10:51:17.233Z,17.59
2018-10-19T10:53:46.152Z,17.84
2018-10-19T10:56:14.904Z,17.93
2018-10-19T10:58:43.694Z,17.67
2018-10-19T11:01:12.424Z,17.79
2018-10-19T11:03:41.025Z,17.63
2018-10-19T11:06:09.556Z,17.62
2018-10-19T11:08:38.196Z,17.93
2018-10-19T11:11:12.956Z,17.92
2018-10-19T11:13:42.722Z,17.89
2018-10-19T11:16:12.544Z,17.72
2018-10-19T11:18:41.404Z,17.95
2018-10-19T11:21:10.611Z,17.64
2018-10-19T11:23:39.225Z,18.04
2018-10-19T11:26:07.903Z,18.13
2018-10-19T11:28:36.545Z,18.07
2018-10-19T11:31:05.555Z,17.94
2018-10-19T11:33:34.119Z,17.97
2018-10-19T11:36:02.684Z,18.12
2018-10-19T11:38:31.377Z,18.15
2018-10-19T11:40:59.976Z,18.11
2018-10-19T11:43:28.641Z,18.17
2018-10-19T11:45:57.165Z,18.16
2018-10-19T11:48:25.736Z,18.16
2018-10-19T11:50:54.649Z,18.11
2018-10-19T11:53:23.460Z,18.45
2018-10-19T11:55:52.085Z,18.30
2018-10-19T11:58:20.671Z,18.27
2018-10-19T12:00:49.252Z,18.36
2018-10-19T12:03:17.895Z,18.46
2018-10-19T12:05:46.736Z,18.41
2018-10-19T12:08:15.383Z,18.35
2018-10-19T12:10:44.008Z,17.97
2018-10-19T12:13:12.883Z,18.07
2018-10-19T12:15:41.476Z,18.27
2018-10-19T12:18:10.083Z,18.13
2018-10-19T12:20:38.935Z,18.47
2018-10-19T12:23:07.613Z,18.58
2018-10-19T12:25:36.197Z,18.40
2018-10-19T12:28:05.320Z,18.30
2018-10-19T12:30:33.996Z,18.28
2018-10-19T12:33:02.623Z,18.39
2018-10-19T12:35:31.224Z,18.49
2018-10-19T12:37:59.781Z,18.63
2018-10-19T12:40:28.403Z,18.41
2018-10-19T12:42:56.989Z,18.56
2018-10-19T12:46:37.029Z,18.38
2018-10-19T12:49:06.151Z,18.80
2018-10-19T12:51:35.142Z,18.56
2018-10-19T12:54:03.853Z,18.59
2018-10-19T12:56:32.373Z,18.77
2018-10-19T12:59:00.959Z,18.49
2018-10-19T13:01:30.448Z,18.61
2018-10-19T13:03:59.798Z,18.55
2018-10-19T13:06:28.406Z,18.51
2018-10-19T13:08:57.132Z,18.50
2018-10-19T13:11:26.090Z,18.70
2018-10-19T13:13:54.880Z,18.91
2018-10-19T13:16:23.680Z,19.09
2018-10-19T13:18:52.968Z,18.83
2018-10-19T13:21:21.566Z,18.58
2018-10-19T13:23:50.276Z,18.81
2018-10-19T13:26:18.852Z,18.82
2018-10-19T13:28:47.478Z,18.67
2018-10-19T13:31:16.028Z,18.61
2018-10-19T13:33:44.833Z,18.73
2018-10-19T13:36:13.541Z,18.69
2018-10-19T13:38:42.069Z,18.68
2018-10-19T13:41:10.790Z,18.61
2018-10-19T13:43:40.163Z,18.68
2018-10-19T13:46:08.707Z,18.64
2018-10-19T13:48:37.602Z,18.78
2018-10-19T13:51:06.714Z,18.55
2018-10-19T13:53:35.256Z,18.57
2018-10-19T13:56:03.897Z,18.51
2018-10-19T13:58:32.516Z,18.60
2018-10-19T14:01:01.045Z,18.58
2018-10-19T14:03:30.137Z,18.51
2018-10-19T14:05:58.804Z,18.56
2018-10-19T14:08:27.609Z,18.58
2018-10-19T14:10:56.424Z,18.60
2018-10-19T14:13:25.414Z,18.61
2018-10-19T14:15:54.415Z,18.58
2018-10-19T14:18:23.000Z,18.38
2018-10-19T14:20:51.608Z,18.50
2018-10-19T14:23:20.234Z,18.60
2018-10-19T14:25:48.780Z,18.50
2018-10-19T14:28:17.476Z,18.41
2018-10-19T14:30:46.124Z,18.47
2018-10-19T14:33:14.974Z,18.67
2018-10-19T14:35:43.476Z,18.59
2018-10-19T14:38:12.204Z,18.79
2018-10-19T14:40:40.840Z,18.70
2018-10-19T14:43:09.477Z,18.63
2018-10-19T14:45:38.137Z,18.60
2018-10-19T14:48:07.001Z,18.60
2018-10-19T14:50:35.677Z,18.66
2018-10-19T14:53:04.334Z,18.32
2018-10-19T14:55:33.088Z,18.52
2018-10-19T14:58:01.681Z,18.58
2018-10-19T15:00:30.448Z,18.61
2018-10-19T15:02:59.290Z,18.56
2018-10-19T15:05:27.929Z,18.46
2018-10-19T15:07:56.528Z,18.50
2018-10-19T15:10:25.461Z,18.38
2018-10-19T15:12:53.849Z,18.46
2018-10-19T15:15:23.485Z,18.58
2018-10-19T15:17:52.210Z,18.54
2018-10-19T15:20:20.753Z,18.41
2018-10-19T15:22:49.472Z,18.62
2018-10-19T15:25:18.133Z,18.39
2018-10-19T15:27:47.422Z,18.37
2018-10-19T15:30:17.780Z,18.57
2018-10-19T15:32:46.349Z,18.28
2018-10-19T15:35:14.936Z,18.27
2018-10-19T15:37:43.668Z,18.20
2018-10-19T15:40:12.612Z,18.41
2018-10-19T15:42:41.404Z,18.12
2018-10-19T15:45:12.025Z,18.03
2018-10-19T15:47:40.696Z,17.99
2018-10-19T15:50:09.761Z,18.02
2018-10-19T15:52:38.489Z,18.41
2018-10-19T15:55:07.864Z,18.07
2018-10-19T15:57:36.677Z,17.86
2018-10-19T16:00:05.696Z,17.76
2018-10-19T16:02:34.214Z,17.58
2018-10-19T16:05:02.788Z,17.86
2018-10-19T16:07:31.512Z,17.60
2018-10-19T16:10:00.102Z,17.38
2018-10-19T16:12:28.658Z,16.92
2018-10-19T16:14:57.368Z,16.98
2018-10-19T16:17:25.990Z,16.90
2018-10-19T16:19:54.526Z,16.75
2018-10-19T16:22:23.283Z,16.70
2018-10-19T16:24:51.805Z,16.31
2018-10-19T16:27:20.508Z,16.15
2018-10-19T16:29:50.040Z,16.16
2018-10-19T16:32:18.594Z,15.89
2018-10-19T16:34:47.145Z,16.03
2018-10-19T16:37:16.809Z,15.67
2018-10-19T16:39:45.712Z,15.51
2018-10-19T16:42:14.641Z,15.74
2018-10-19T16:44:44.654Z,15.37
2018-10-19T16:47:13.921Z,15.28
2018-10-19T16:49:42.471Z,15.10
2018-10-19T16:52:11.229Z,14.97
2018-10-19T16:54:39.764Z,14.84
2018-10-19T16:57:08.404Z,14.62
2018-10-19T16:59:37.163Z,14.47
2018-10-19T17:02:06.208Z,14.51
2018-10-19T17:04:34.803Z,14.57
2018-10-19T17:07:03.867Z,14.62
2018-10-19T17:09:32.521Z,14.70
2018-10-19T17:12:01.203Z,14.63
2018-10-19T17:14:29.792Z,14.45
2018-10-19T17:16:58.417Z,14.31
2018-10-19T17:19:27.058Z,14.24
2018-10-19T17:21:55.747Z,14.18
2018-10-19T17:24:24.496Z,14.29
2018-10-19T17:26:53.166Z,14.12
2018-10-19T17:29:22.141Z,14.01
2018-10-19T17:31:50.955Z,14.04
2018-10-19T17:34:19.598Z,14.19
2018-10-19T17:36:48.333Z,14.09
2018-10-19T17:39:17.040Z,14.05
2018-10-19T17:41:45.533Z,14.39
2018-10-19T17:44:14.224Z,14.54
2018-10-19T17:46:43.046Z,14.30
2018-10-19T17:49:11.664Z,14.17
2018-10-19T17:51:40.182Z,14.11
2018-10-19T17:54:08.817Z,14.09
2018-10-19T17:56:37.485Z,14.02
2018-10-19T17:59:06.235Z,13.93
2018-10-19T18:01:35.116Z,13.84
2018-10-19T18:04:03.804Z,13.84
2018-10-19T18:06:33.562Z,13.75
2018-10-19T18:09:02.140Z,13.81
2018-10-19T18:11:30.861Z,13.71
2018-10-19T18:13:59.397Z,13.81
2018-10-19T18:16:28.065Z,13.50
2018-10-19T18:18:56.692Z,13.40
2018-10-19T18:21:25.531Z,13.40
2018-10-19T18:23:54.176Z,13.48
2018-10-19T18:26:22.745Z,13.09
2018-10-19T18:28:51.533Z,13.25
2018-10-19T18:31:20.400Z,13.19
2018-10-19T18:33:48.926Z,12.89
2018-10-19T18:36:17.618Z,12.85
2018-10-19T18:38:46.155Z,12.89
2018-10-19T18:41:14.858Z,12.81
2018-10-19T18:43:43.635Z,12.73
2018-10-19T18:46:12.266Z,13.11
2018-10-19T18:48:40.942Z,12.83
2018-10-19T18:51:09.648Z,12.60
2018-10-19T18:53:38.745Z,12.54
2018-10-19T18:56:07.772Z,12.74
2018-10-19T18:58:36.830Z,12.52
2018-10-19T19:01:05.954Z,12.31
2018-10-19T19:03:35.185Z,12.34
2018-10-19T19:06:04.262Z,12.59
2018-10-19T19:08:33.264Z,12.09
2018-10-19T19:11:02.648Z,12.08
2018-10-19T19:13:32.785Z,12.19
2018-10-19T19:16:02.348Z,12.07
2018-10-19T19:18:31.475Z,12.02
2018-10-19T19:21:00.614Z,11.86
2018-10-19T19:23:29.775Z,11.73
2018-10-19T19:26:04.070Z,11.85
2018-10-19T19:28:33.140Z,11.79
2018-10-19T19:31:02.533Z,11.53
2018-10-19T19:33:36.812Z,11.52
2018-10-19T19:36:06.194Z,11.47
2018-10-19T19:38:35.282Z,11.32
2018-10-19T19:41:09.518Z,11.14
2018-10-19T19:43:38.417Z,11.27
2018-10-19T19:46:07.466Z,11.41
2018-10-19T19:48:41.650Z,11.36
2018-10-19T19:51:14.688Z,11.18
2018-10-19T19:53:43.936Z,11.17
2018-10-19T19:56:13.396Z,11.10
2018-10-19T19:58:42.321Z,11.10
2018-10-19T20:01:11.809Z,11.03
2018-10-19T20:03:40.789Z,11.07
2018-10-19T20:06:10.070Z,11.03
2018-10-19T20:08:39.601Z,11.14
2018-10-19T20:11:09.156Z,10.99
2018-10-19T20:13:38.666Z,10.98
2018-10-19T20:16:07.724Z,10.89
2018-10-19T20:18:36.712Z,11.08
2018-10-19T20:21:06.131Z,10.86
2018-10-19T20:23:35.151Z,10.84
2018-10-19T20:26:03.953Z,10.97
2018-10-19T20:28:32.917Z,10.80
2018-10-19T20:31:01.777Z,10.77
2018-10-19T20:33:30.404Z,10.65
2018-10-19T20:35:59.117Z,10.69
2018-10-19T20:38:27.811Z,10.55
2018-10-19T20:40:56.564Z,10.53
2018-10-19T20:43:25.189Z,10.48
2018-10-19T20:45:53.755Z,10.33
2018-10-19T20:48:22.574Z,10.48
2018-10-19T20:50:51.317Z,10.30
2018-10-19T20:53:19.865Z,10.26
2018-10-19T20:55:48.533Z,10.20
2018-10-19T20:58:17.176Z,10.22
2018-10-19T21:00:45.806Z,10.24
2018-10-19T21:03:14.611Z,10.18
2018-10-19T21:05:43.305Z,10.09
2018-10-19T21:08:11.904Z,10.09
2018-10-19T21:10:40.510Z,10.08
2018-10-19T21:13:09.165Z,9.93
2018-10-19T21:15:37.745Z,9.99
2018-10-19T21:18:06.637Z,9.99
2018-10-19T21:20:35.284Z,9.88
2018-10-19T21:23:03.883Z,9.80
2018-10-19T21:25:32.468Z,9.82
2018-10-19T21:28:01.284Z,9.98
2018-10-19T21:30:29.870Z,9.75
2018-10-19T21:32:58.466Z,9.75
2018-10-19T21:35:27.065Z,9.63
2018-10-19T21:37:55.620Z,9.62
2018-10-19T21:40:24.333Z,9.57
2018-10-19T21:42:53.018Z,9.62
2018-10-19T21:45:21.876Z,9.70
2018-10-19T21:47:50.706Z,9.64
2018-10-19T21:50:22.025Z,9.45
2018-10-19T21:52:52.213Z,9.26
2018-10-19T21:55:20.793Z,9.09
2018-10-19T21:57:49.464Z,9.27
2018-10-19T22:00:18.046Z,9.21
2018-10-19T22:02:46.692Z,9.27
2018-10-19T22:05:15.327Z,9.39
2018-10-19T22:07:43.914Z,9.36
2018-10-19T22:10:12.844Z,9.30
2018-10-19T22:12:41.572Z,9.50
2018-10-19T22:15:10.639Z,9.25
2018-10-19T22:17:39.217Z,9.10
2018-10-19T22:20:08.572Z,9.12
2018-10-19T22:22:37.438Z,9.07
2018-10-19T22:25:07.403Z,9.09
2018-10-19T22:27:35.973Z,8.97
2018-10-19T22:30:04.956Z,8.93
2018-10-19T22:32:33.558Z,9.08
2018-10-19T22:35:02.251Z,8.88
2018-10-19T22:37:30.861Z,8.82
2018-10-19T22:39:59.401Z,8.88
2018-10-19T22:42:28.097Z,8.81
2018-10-19T22:44:56.650Z,9.14
2018-10-19T22:47:25.185Z,8.94
2018-10-19T22:49:54.078Z,8.92
2018-10-19T22:52:22.645Z,8.76
2018-10-19T22:54:51.160Z,8.76
2018-10-19T22:57:19.745Z,8.73
2018-10-19T22:59:48.306Z,8.60
2018-10-19T23:02:16.919Z,8.49
2018-10-19T23:04:45.525Z,8.58
2018-10-19T23:07:14.155Z,8.56
2018-10-19T23:09:42.722Z,8.43
2018-10-19T23:12:11.335Z,8.39
2018-10-19T23:14:39.883Z,8.42
2018-10-19T23:17:08.477Z,8.41
2018-10-19T23:19:36.993Z,8.43
2018-10-19T23:22:05.832Z,8.43
2018-10-19T23:24:34.448Z,8.46
2018-10-19T23:27:03.097Z,8.54
2018-10-19T23:29:31.672Z,8.46
2018-10-19T23:32:00.273Z,8.47
2018-10-19T23:34:28.937Z,8.52
2018-10-19T23:36:57.598Z,8.41
2018-10-19T23:39:26.144Z,8.25
2018-10-19T23:41:54.769Z,8.21
2018-10-19T23:44:23.381Z,8.60
2018-10-19T23:46:52.305Z,8.64
2018-10-19T23:49:20.898Z,8.62
2018-10-19T23:51:49.553Z,8.57
2018-10-19T23:54:18.153Z,8.57
2018-10-19T23:56:46.796Z,8.46
2018-10-19T23:59:15.487Z,8.47
